METAR AND TAF INFORMATION
METAR FOR FMMI
ADDS - METARS form results

(1743 UTC 17 May 2022)
Data provider http://aviationweather.gov/metar/data/
 
METAR text: FMMI 171730Z 14011KT 100V190 9999 FEW017 BKN020 15/13 Q1025 NOSIG
Conditions at: FMMI (ANTANANARIVO/IVA, MG) observed 1730 UTC 17 May 2022
Temperature: 15.0°C (59°F)
Dewpoint: 13.0°C (55°F) [RH = 88%]
Pressure (altimeter): 30.27 inches Hg (1025.0 mb)
Winds: from the SE (140 degrees) at 13 MPH (11 knots; 5.7 m/s)
Visibility: 6 or more miles (10+ km)
Ceiling: 2000 feet AGL
Clouds: few clouds at 1700 feet AGL
broken clouds at 2000 feet AGL
Weather: no significant weather observed at this time

METAR text: FMMI 171700Z 15009KT 110V180 9999 FEW017 BKN020 16/13 Q1025 NOSIG
Conditions at: FMMI (ANTANANARIVO/IVA, MG) observed 1700 UTC 17 May 2022
Temperature: 16.0°C (61°F)
Dewpoint: 13.0°C (55°F) [RH = 82%]
Pressure (altimeter): 30.27 inches Hg (1025.0 mb)
Winds: from the SSE (150 degrees) at 10 MPH (9 knots; 4.6 m/s)
Visibility: 6 or more miles (10+ km)
Ceiling: 2000 feet AGL
Clouds: few clouds at 1700 feet AGL
broken clouds at 2000 feet AGL
Weather: no significant weather observed at this time

Forecast for: FMMI (ANTANANARIVO/IVA, MG)
Text: TAF FMMI 171700Z 1718/1824 16010KT 9999 FEW017 BKN020
Forecast period: 1800 UTC 17 May 2022 to 0000 UTC 19 May 2022
Forecast type: FROM: standard forecast or significant change
Winds: from the SSE (160 degrees) at 12 MPH (10 knots; 5.1 m/s)
Visibility: 6 or more miles (10+ km)
Ceiling: 2000 feet AGL
Clouds: few clouds at 1700 feet AGL
broken clouds at 2000 feet AGL
Weather: no significant weather forecast for this period

 AIRPORT MAP

 RUNWAY INFORMATION
Runway 11 Runway length 10171 ft Runway width 148 ft
Runway elevation 4197 ft Runway displaced threshold 0 ft Runway heading 99
Runway 29 Runway length 10171 ft Runway width 148 ft
Runway elevation 4117 ft Runway displaced threshold 0 ft Runway heading 279

 AIRPORT FREQUENCIES
Type TWR Name TWR Frequency 120.1 MHZ

 AIRPORT NEAR NAVIGATION AIDS
Type VOR-DME Name Ivato Frequency 114500 KHZ





Powered by Virtual Airlines Manager

Maps by Rafael Santos